Nearby METAR Reports

 

KEDC - Austin Exec, Texas, USA
Distance from station: SSE 10mi, 17km
Updated: Fri, 24-May-2019 9:55pm CDT
Overcast
Overcast
 Wind from SSE
Wind: SSE 12 mph , 19 km/h, Gust: 16 mph , 26 km/h
Temperature: 77°F , 25°C
Dew Point: 68°F , 20°C
Humidity: 74%
Barometer: 29.99 inHg , 1015.6 hPa
Clouds: Overcast
Visibility: 10 miles , 16 km
Cloud details: Mostly cloudy 2600 ft
Overcast 3300 ft
2019/05/25 02:55 KEDC 250255Z AUTO 16010G14KT 10SM BKN026 OVC033 25/20 A2999 RMK AO2
KGTU - Georgetown, Texas, USA
Distance from station: NNW 11mi, 17km
Updated: Fri, 24-May-2019 9:56pm CDT
Clear
Clear
 Wind from SSE
Wind: SSE 8 mph , 13 km/h
Temperature: 79°F , 26°C
Dew Point: 66°F , 19°C
Humidity: 65%
Barometer: 29.99 inHg , 1015.6 hPa
Clouds: Clear
Visibility: 10 miles , 16 km
2019/05/25 02:56 KGTU 250256Z AUTO 16007KT 10SM CLR 26/19 A2999 RMK AO2 SLP147 T02610194 53012
 
KATT - Austin/Mabry, Texas, USA
Distance from station: SSW 18mi, 30km
Updated: Fri, 24-May-2019 9:51pm CDT
Clear
Clear
 Wind from varies
Wind: varies 7 mph , 11 km/h
Temperature: 79°F , 26°C
Dew Point: 66°F , 19°C
Humidity: 65%
Barometer: 29.99 inHg , 1015.6 hPa
Clouds: Clear
Visibility: 10 miles , 16 km
2019/05/25 02:51 KATT 250251Z AUTO VRB06KT 10SM CLR 26/19 A2999 RMK AO2 SLP140 T02610189 53016
KRYW - Lago Vista, Texas, USA
Distance from station: W 22mi, 35km
Updated: Fri, 24-May-2019 9:55pm CDT
Clear
Clear
 Wind from SE
Wind: SE 10 mph , 17 km/h, Gust: 18 mph , 30 km/h
Temperature: 77°F , 25°C
Dew Point: 66°F , 19°C
Humidity: 69%
Barometer: 29.99 inHg , 1015.6 hPa
Clouds: Clear
Visibility: 10 miles , 16 km
2019/05/25 02:55 KRYW 250255Z AUTO 14009G16KT 10SM CLR 25/19 A2999 RMK AO2 T02450191
 
KAUS - Austin, Texas, USA
Distance from station: S 25mi, 41km
Updated: Fri, 24-May-2019 9:53pm CDT
Few Clouds
Few Clouds
 Wind from S
Wind: S 8 mph , 13 km/h
Temperature: 77°F , 25°C
Dew Point: 68°F , 20°C
Humidity: 74%
Barometer: 29.97 inHg , 1014.9 hPa
Clouds: Few Clouds
Visibility: 10 miles , 16 km
Cloud details: Few Clouds 5000 ft
Few Clouds 25000 ft
2019/05/25 02:53 KAUS 250253Z 17007KT 10SM FEW050 FEW250 25/20 A2997 RMK AO2 SLP139 T02500200 51019
KILE - Killeen Muni, Texas, USA
Distance from station: N 36mi, 58km
Updated: Fri, 24-May-2019 9:56pm CDT
Clear
Clear
 Wind from SSE
Wind: SSE 14 mph , 22 km/h, Gust: 18 mph , 30 km/h
Temperature: 79°F , 26°C
Dew Point: 66°F , 19°C
Humidity: 65%
Barometer: 29.96 inHg , 1014.6 hPa
Clouds: Clear
Visibility: 10 miles , 16 km
2019/05/25 02:56 KILE 250256Z AUTO 16012G16KT 10SM CLR 26/19 A2996 RMK AO2 SLP134 T02560194 51010
 
KGRK - Gray/Ft Hood, Texas, USA
Distance from station: NNW 38mi, 62km
Updated: Fri, 24-May-2019 9:58pm CDT
Clear
Clear
 Wind from SSE
Wind: SSE 12 mph , 19 km/h
Temperature: 75°F , 24°C
Dew Point: 66°F , 19°C
Humidity: 74%
Barometer: 29.95 inHg , 1014.2 hPa
Clouds: Clear
Visibility: 10 miles , 16 km
2019/05/25 02:58 KGRK 250258Z AUTO 15010KT 10SM CLR 24/19 A2995 RMK AO2 SLP132 T02440191 52012
KBMQ - Burnet, Texas, USA
Distance from station: WNW 39mi, 64km
Updated: Fri, 24-May-2019 9:53pm CDT
Clear
Clear
 Wind from SE
Wind: SE 8 mph , 13 km/h, Gust: 17 mph , 28 km/h
Temperature: 79°F , 26°C
Dew Point: 66°F , 19°C
Humidity: 65%
Barometer: 29.99 inHg , 1015.6 hPa
Clouds: Clear
Visibility: 10 miles , 16 km
2019/05/25 02:53 KBMQ 250253Z AUTO 14007G15KT 10SM CLR 26/19 A2999 RMK AO2 SLP137 T02560189 53010
 
KHLR - Ft Hood/Killeen, Texas, USA
Distance from station: N 41mi, 66km
Updated: Fri, 24-May-2019 9:58pm CDT
Clear
Clear
 Wind from SSE
Wind: SSE 12 mph , 19 km/h
Temperature: 79°F , 26°C
Dew Point: 66°F , 19°C
Humidity: 65%
Barometer: 29.92 inHg , 1013.2 hPa
Clouds: Clear
Visibility: 10 miles , 16 km
2019/05/25 02:58 KHLR 250258Z AUTO 16010KT 10SM CLR 26/19 A2992 RMK AO2 SLP120 T02550190 52010
KTPL - Temple/Miller, Texas, USA
Distance from station: NNE 42mi, 68km
Updated: Fri, 24-May-2019 9:51pm CDT
Clear
Clear
 Wind from SSE
Wind: SSE 16 mph , 26 km/h
Temperature: 79°F , 26°C
Dew Point: 68°F , 20°C
Humidity: 70%
Barometer: 29.96 inHg , 1014.6 hPa
Clouds: Clear
Visibility: 10 miles , 16 km
2019/05/25 02:51 KTPL 250251Z AUTO 15014KT 10SM CLR 26/20 A2996 RMK AO2 SLP147 T02560200 51009
 
KT35 - Cameron, Texas, USA
Distance from station: ENE 45mi, 72km
Updated: Fri, 24-May-2019 9:55pm CDT
Clear
Clear
 Wind from SSE
Wind: SSE 8 mph , 13 km/h
Temperature: 79°F , 26°C
Dew Point: 68°F , 20°C
Humidity: 70%
Barometer: 29.96 inHg , 1014.6 hPa
Clouds: Clear
Visibility: 10 miles , 16 km
2019/05/25 02:55 KT35 250255Z AUTO 16007KT 10SM CLR 26/20 A2996 RMK AO2 T02600204
KDZB - Horseshoe Bay, Texas, USA
Distance from station: W 45mi, 73km
Updated: Fri, 24-May-2019 9:56pm CDT
Clear
Clear
 Wind from SE
Wind: SE 0 mph , 0 km/h
Temperature: 77°F , 25°C
Dew Point: 66°F , 19°C
Humidity: 69%
Barometer: 29.98 inHg , 1015.2 hPa
Clouds: Clear
Visibility: 10 miles , 16 km
2019/05/25 02:56 KDZB 250256Z AUTO 14000KT 10SM CLR 25/19 A2998 RMK AO2
 
KGYB - Giddings-Lee, Texas, USA
Distance from station: SE 45mi, 73km
Updated: Fri, 24-May-2019 9:55pm CDT
Mostly cloudy
Mostly cloudy
 Wind from SSE
Wind: SSE 5 mph , 7 km/h
Temperature: 82°F , 28°C
Heat Index: 86°F , 30°C
Dew Point: 70°F , 21°C
Humidity: 66%
Barometer: 30.00 inHg , 1015.9 hPa
Clouds: Mostly cloudy
Visibility: 10 miles , 16 km
Cloud details: Mostly cloudy 3000 ft
Mostly cloudy 3500 ft
2019/05/25 02:55 KGYB 250255Z AUTO 16004KT 10SM BKN030 BKN035 28/21 A3000 RMK AO2 T02750214
KHYI - San Marcos, Texas, USA
Distance from station: SSW 48mi, 78km
Updated: Fri, 24-May-2019 9:56pm CDT
Few Clouds
Few Clouds
 Wind from SE
Wind: SE 12 mph , 19 km/h
Temperature: 75°F , 24°C
Dew Point: 68°F , 20°C
Humidity: 78%
Barometer: 29.99 inHg , 1015.6 hPa
Clouds: Few Clouds
Visibility: 10 miles , 16 km
Cloud details: Few Clouds 3200 ft
2019/05/25 02:56 KHYI 250256Z AUTO 14010KT 10SM FEW032 24/20 A2999 RMK AO2 SLP146 T02440200 51019
 
KLZZ - Lampasas, Texas, USA
Distance from station: NW 52mi, 84km
Updated: Fri, 24-May-2019 9:55pm CDT
Clear
Clear
 Wind from SSE
Wind: SSE 8 mph , 13 km/h, Gust: 18 mph , 30 km/h
Temperature: 77°F , 25°C
Dew Point: 66°F , 19°C
Humidity: 69%
Barometer: 29.96 inHg , 1014.6 hPa
Clouds: Clear
Visibility: 10 miles , 16 km
2019/05/25 02:55 KLZZ 250255Z AUTO 16007G16KT 10SM CLR 25/19 A2996 RMK AO2 T02470190
KRWV - Caldwell, Texas, USA
Distance from station: E 54mi, 87km
Updated: Fri, 24-May-2019 9:55pm CDT
Clear
Clear
 Wind from SSE
Wind: SSE 8 mph , 13 km/h
Temperature: 77°F , 25°C
Dew Point: 70°F , 21°C
Humidity: 79%
Barometer: 30.00 inHg , 1015.9 hPa
Clouds: Clear
Visibility: 10 miles , 16 km
2019/05/25 02:55 KRWV 250255Z AUTO 16007KT 10SM CLR 25/21 A3000 RMK AO2 T02540207
 
K3T5 - La Grange, Texas, USA
Distance from station: SE 59mi, 95km
Updated: Fri, 24-May-2019 9:55pm CDT
Clear
Clear
 Wind from SSE
Wind: SSE 6 mph , 9 km/h
Temperature: 79°F , 26°C
Dew Point: 72°F , 22°C
Humidity: 79%
Barometer: 29.97 inHg , 1014.9 hPa
Clouds: Clear
Visibility: 10 miles , 16 km
2019/05/25 02:55 K3T5 250255Z AUTO 16005KT 10SM CLR 26/22 A2997 RMK AO2 T02590219
KGOP - Gatesville, Texas, USA
Distance from station: N 61mi, 99km
Updated: Fri, 24-May-2019 9:55pm CDT
Clear
Clear
 Wind from SE
Wind: SE 9 mph , 15 km/h
Temperature: 77°F , 25°C
Dew Point: 66°F , 19°C
Humidity: 69%
Barometer: 29.98 inHg , 1015.2 hPa
Clouds: Clear
Visibility: 10 miles , 16 km
2019/05/25 02:55 KGOP 250255Z AUTO 13008KT 10SM CLR 25/19 A2998 RMK AO2
 
KLHB - Hearne Muni, Texas, USA
Distance from station: ENE 63mi, 101km
Updated: Fri, 24-May-2019 9:55pm CDT
Clear
Clear
 Wind from SE
Wind: SE 12 mph , 19 km/h
Temperature: 81°F , 27°C
Heat Index: 85°F , 29°C
Dew Point: 72°F , 22°C
Humidity: 74%
Barometer: 29.98 inHg , 1015.2 hPa
Clouds: Clear
Visibility: 10 miles , 16 km
2019/05/25 02:55 KLHB 250255Z AUTO 14010KT 10SM CLR 27/22 A2998 RMK AO2 T02660222
KBAZ - New Braunfels, Texas, USA
Distance from station: SSW 63mi, 102km
Updated: Fri, 24-May-2019 9:51pm CDT
Few Clouds
Few Clouds
 Wind from SE
Wind: SE 12 mph , 19 km/h
Temperature: 77°F , 25°C
Dew Point: 70°F , 21°C
Humidity: 79%
Barometer: 29.97 inHg , 1014.9 hPa
Clouds: Few Clouds
Visibility: 10 miles , 16 km
Cloud details: Few Clouds 2700 ft
2019/05/25 02:51 KBAZ 250251Z AUTO 14010KT 10SM FEW027 25/21 A2997 RMK AO2 SLP139 T02500206 51017